sensor_id;sensor_type;location;lat;lon;timestamp;temperature;humidity
9118;DHT22;4594;50.994;7.126;2022-07-04T00:00:27;18.40;31.20
9118;DHT22;4594;50.994;7.126;2022-07-04T00:02:54;18.30;31.20
9118;DHT22;4594;50.994;7.126;2022-07-04T00:05:19;18.30;31.20
9118;DHT22;4594;50.994;7.126;2022-07-04T00:07:47;18.30;31.30
9118;DHT22;4594;50.994;7.126;2022-07-04T00:10:18;18.20;31.30
9118;DHT22;4594;50.994;7.126;2022-07-04T00:12:46;18.20;31.50
9118;DHT22;4594;50.994;7.126;2022-07-04T00:15:13;18.10;31.30
9118;DHT22;4594;50.994;7.126;2022-07-04T00:17:40;18.10;31.50
9118;DHT22;4594;50.994;7.126;2022-07-04T00:20:07;18.00;31.50
9118;DHT22;4594;50.994;7.126;2022-07-04T00:22:34;18.00;31.50
9118;DHT22;4594;50.994;7.126;2022-07-04T00:25:00;17.90;31.50
9118;DHT22;4594;50.994;7.126;2022-07-04T00:27:26;17.90;31.50
9118;DHT22;4594;50.994;7.126;2022-07-04T00:29:52;17.90;31.60
9118;DHT22;4594;50.994;7.126;2022-07-04T00:32:18;17.80;31.60
9118;DHT22;4594;50.994;7.126;2022-07-04T00:34:44;17.70;31.60
9118;DHT22;4594;50.994;7.126;2022-07-04T00:37:10;17.60;31.70
9118;DHT22;4594;50.994;7.126;2022-07-04T00:39:36;17.70;31.80
9118;DHT22;4594;50.994;7.126;2022-07-04T00:42:02;17.70;31.80
9118;DHT22;4594;50.994;7.126;2022-07-04T00:44:28;17.60;31.80
9118;DHT22;4594;50.994;7.126;2022-07-04T00:46:55;17.50;31.70
9118;DHT22;4594;50.994;7.126;2022-07-04T00:49:20;17.50;31.80
9118;DHT22;4594;50.994;7.126;2022-07-04T00:51:47;17.40;31.80
9118;DHT22;4594;50.994;7.126;2022-07-04T00:54:15;17.40;31.80
9118;DHT22;4594;50.994;7.126;2022-07-04T00:56:43;17.30;31.80
9118;DHT22;4594;50.994;7.126;2022-07-04T00:59:10;17.30;31.80
9118;DHT22;4594;50.994;7.126;2022-07-04T01:01:37;17.20;31.80
9118;DHT22;4594;50.994;7.126;2022-07-04T01:04:04;17.10;31.80
9118;DHT22;4594;50.994;7.126;2022-07-04T01:06:31;17.10;31.80
9118;DHT22;4594;50.994;7.126;2022-07-04T01:08:58;17.00;31.80
9118;DHT22;4594;50.994;7.126;2022-07-04T01:11:25;17.00;31.90
9118;DHT22;4594;50.994;7.126;2022-07-04T01:13:51;16.90;31.90
9118;DHT22;4594;50.994;7.126;2022-07-04T01:16:19;16.90;31.90
9118;DHT22;4594;50.994;7.126;2022-07-04T01:18:44;16.80;31.80
9118;DHT22;4594;50.994;7.126;2022-07-04T01:21:10;16.80;31.90
9118;DHT22;4594;50.994;7.126;2022-07-04T01:23:39;16.80;32.00
9118;DHT22;4594;50.994;7.126;2022-07-04T01:26:06;16.70;32.10
9118;DHT22;4594;50.994;7.126;2022-07-04T01:28:33;16.70;32.00
9118;DHT22;4594;50.994;7.126;2022-07-04T01:30:59;16.50;31.90
9118;DHT22;4594;50.994;7.126;2022-07-04T01:33:25;16.60;32.10
9118;DHT22;4594;50.994;7.126;2022-07-04T01:35:50;16.60;32.10
9118;DHT22;4594;50.994;7.126;2022-07-04T01:38:16;16.50;32.10
9118;DHT22;4594;50.994;7.126;2022-07-04T01:40:42;16.50;32.10
9118;DHT22;4594;50.994;7.126;2022-07-04T01:43:08;16.50;32.10
9118;DHT22;4594;50.994;7.126;2022-07-04T01:45:34;16.40;32.10
9118;DHT22;4594;50.994;7.126;2022-07-04T01:48:04;16.40;32.10
9118;DHT22;4594;50.994;7.126;2022-07-04T01:50:34;16.30;32.20
9118;DHT22;4594;50.994;7.126;2022-07-04T01:53:01;16.30;32.30
9118;DHT22;4594;50.994;7.126;2022-07-04T01:55:27;16.30;32.40
9118;DHT22;4594;50.994;7.126;2022-07-04T01:57:54;16.20;32.30
9118;DHT22;4594;50.994;7.126;2022-07-04T02:00:19;16.20;32.40
9118;DHT22;4594;50.994;7.126;2022-07-04T02:03:04;16.20;32.40
9118;DHT22;4594;50.994;7.126;2022-07-04T02:05:29;16.20;32.40
9118;DHT22;4594;50.994;7.126;2022-07-04T02:07:55;16.10;32.40
9118;DHT22;4594;50.994;7.126;2022-07-04T02:10:21;16.10;32.40
9118;DHT22;4594;50.994;7.126;2022-07-04T02:12:47;16.10;32.50
9118;DHT22;4594;50.994;7.126;2022-07-04T02:15:39;16.00;32.40
9118;DHT22;4594;50.994;7.126;2022-07-04T02:18:09;16.00;32.80
9118;DHT22;4594;50.994;7.126;2022-07-04T02:20:36;16.00;32.60
9118;DHT22;4594;50.994;7.126;2022-07-04T02:23:04;15.80;32.40
9118;DHT22;4594;50.994;7.126;2022-07-04T02:25:30;15.90;32.60
9118;DHT22;4594;50.994;7.126;2022-07-04T02:27:56;15.80;32.60
9118;DHT22;4594;50.994;7.126;2022-07-04T02:30:23;15.80;32.70
9118;DHT22;4594;50.994;7.126;2022-07-04T02:32:49;15.80;32.70
9118;DHT22;4594;50.994;7.126;2022-07-04T02:35:14;15.70;32.60
9118;DHT22;4594;50.994;7.126;2022-07-04T02:37:40;15.70;32.70
9118;DHT22;4594;50.994;7.126;2022-07-04T02:40:06;15.60;32.70
9118;DHT22;4594;50.994;7.126;2022-07-04T02:42:33;15.60;32.70
9118;DHT22;4594;50.994;7.126;2022-07-04T02:45:00;15.60;32.80
9118;DHT22;4594;50.994;7.126;2022-07-04T02:47:27;15.50;32.80
9118;DHT22;4594;50.994;7.126;2022-07-04T02:49:53;15.50;32.90
9118;DHT22;4594;50.994;7.126;2022-07-04T02:52:19;15.50;33.00
9118;DHT22;4594;50.994;7.126;2022-07-04T02:54:45;15.40;32.90
9118;DHT22;4594;50.994;7.126;2022-07-04T02:57:12;15.40;33.00
9118;DHT22;4594;50.994;7.126;2022-07-04T02:59:38;15.40;33.00
9118;DHT22;4594;50.994;7.126;2022-07-04T03:02:04;15.30;32.90
9118;DHT22;4594;50.994;7.126;2022-07-04T03:04:30;15.30;32.90
9118;DHT22;4594;50.994;7.126;2022-07-04T03:06:56;15.20;32.90
9118;DHT22;4594;50.994;7.126;2022-07-04T03:09:22;15.20;33.00
9118;DHT22;4594;50.994;7.126;2022-07-04T03:11:47;15.20;33.10
9118;DHT22;4594;50.994;7.126;2022-07-04T03:14:13;15.20;33.10
9118;DHT22;4594;50.994;7.126;2022-07-04T03:16:39;15.10;33.10
9118;DHT22;4594;50.994;7.126;2022-07-04T03:19:04;15.10;33.10
9118;DHT22;4594;50.994;7.126;2022-07-04T03:21:30;15.10;33.20
9118;DHT22;4594;50.994;7.126;2022-07-04T03:23:56;15.10;33.20
9118;DHT22;4594;50.994;7.126;2022-07-04T03:26:28;15.10;33.20
9118;DHT22;4594;50.994;7.126;2022-07-04T03:28:56;15.10;33.40
9118;DHT22;4594;50.994;7.126;2022-07-04T03:31:23;15.10;33.20
9118;DHT22;4594;50.994;7.126;2022-07-04T03:33:49;15.10;33.30
9118;DHT22;4594;50.994;7.126;2022-07-04T03:36:15;15.10;33.30
9118;DHT22;4594;50.994;7.126;2022-07-04T03:38:41;15.00;33.30
9118;DHT22;4594;50.994;7.126;2022-07-04T03:41:07;15.00;33.30
9118;DHT22;4594;50.994;7.126;2022-07-04T03:43:32;15.10;33.30
9118;DHT22;4594;50.994;7.126;2022-07-04T03:45:59;15.10;33.50
9118;DHT22;4594;50.994;7.126;2022-07-04T03:48:25;15.00;33.50
9118;DHT22;4594;50.994;7.126;2022-07-04T03:50:51;15.10;33.60
9118;DHT22;4594;50.994;7.126;2022-07-04T03:53:16;15.00;33.60
9118;DHT22;4594;50.994;7.126;2022-07-04T03:55:42;15.00;33.70
9118;DHT22;4594;50.994;7.126;2022-07-04T03:58:08;15.00;33.70
9118;DHT22;4594;50.994;7.126;2022-07-04T04:00:34;15.10;33.80
9118;DHT22;4594;50.994;7.126;2022-07-04T04:03:00;15.10;33.90
9118;DHT22;4594;50.994;7.126;2022-07-04T04:05:26;15.10;33.80
9118;DHT22;4594;50.994;7.126;2022-07-04T04:07:59;15.00;33.80
9118;DHT22;4594;50.994;7.126;2022-07-04T04:10:29;15.10;34.10
9118;DHT22;4594;50.994;7.126;2022-07-04T04:12:57;15.10;33.90
9118;DHT22;4594;50.994;7.126;2022-07-04T04:15:23;15.10;34.00
9118;DHT22;4594;50.994;7.126;2022-07-04T04:17:49;15.10;34.10
9118;DHT22;4594;50.994;7.126;2022-07-04T04:20:15;15.20;34.20
9118;DHT22;4594;50.994;7.126;2022-07-04T04:22:40;15.10;34.20
9118;DHT22;4594;50.994;7.126;2022-07-04T04:25:07;15.20;34.30
9118;DHT22;4594;50.994;7.126;2022-07-04T04:27:33;15.20;34.30
9118;DHT22;4594;50.994;7.126;2022-07-04T04:29:59;15.30;34.40
9118;DHT22;4594;50.994;7.126;2022-07-04T04:32:24;15.30;34.40
9118;DHT22;4594;50.994;7.126;2022-07-04T04:34:50;15.30;34.40
9118;DHT22;4594;50.994;7.126;2022-07-04T04:37:15;15.40;34.50
9118;DHT22;4594;50.994;7.126;2022-07-04T04:39:41;15.40;34.50
9118;DHT22;4594;50.994;7.126;2022-07-04T04:42:07;15.40;34.60
9118;DHT22;4594;50.994;7.126;2022-07-04T04:44:33;15.40;34.70
9118;DHT22;4594;50.994;7.126;2022-07-04T04:46:58;15.50;34.90
9118;DHT22;4594;50.994;7.126;2022-07-04T04:49:24;15.60;35.00
9118;DHT22;4594;50.994;7.126;2022-07-04T04:51:50;15.60;35.00
9118;DHT22;4594;50.994;7.126;2022-07-04T04:54:15;15.80;35.20
9118;DHT22;4594;50.994;7.126;2022-07-04T04:56:42;16.00;35.50
9118;DHT22;4594;50.994;7.126;2022-07-04T04:59:08;16.00;35.50
9118;DHT22;4594;50.994;7.126;2022-07-04T05:01:35;16.10;35.70
9118;DHT22;4594;50.994;7.126;2022-07-04T05:04:01;16.30;35.90
9118;DHT22;4594;50.994;7.126;2022-07-04T05:06:26;16.50;36.10
9118;DHT22;4594;50.994;7.126;2022-07-04T05:08:52;16.80;36.40
9118;DHT22;4594;50.994;7.126;2022-07-04T05:11:18;17.10;36.50
9118;DHT22;4594;50.994;7.126;2022-07-04T05:13:44;17.40;36.70
9118;DHT22;4594;50.994;7.126;2022-07-04T05:16:09;17.80;36.90
9118;DHT22;4594;50.994;7.126;2022-07-04T05:18:35;18.10;36.90
9118;DHT22;4594;50.994;7.126;2022-07-04T05:21:01;18.50;36.80
9118;DHT22;4594;50.994;7.126;2022-07-04T05:23:27;18.90;36.90
9118;DHT22;4594;50.994;7.126;2022-07-04T05:25:52;19.20;36.80
9118;DHT22;4594;50.994;7.126;2022-07-04T05:28:18;19.60;36.70
9118;DHT22;4594;50.994;7.126;2022-07-04T05:30:44;19.90;36.70
9118;DHT22;4594;50.994;7.126;2022-07-04T05:33:10;20.20;36.60
9118;DHT22;4594;50.994;7.126;2022-07-04T05:35:36;20.50;36.60
9118;DHT22;4594;50.994;7.126;2022-07-04T05:38:02;20.80;36.70
9118;DHT22;4594;50.994;7.126;2022-07-04T05:40:29;21.10;36.90
9118;DHT22;4594;50.994;7.126;2022-07-04T05:42:55;21.40;37.00
9118;DHT22;4594;50.994;7.126;2022-07-04T05:45:22;21.70;37.00
9118;DHT22;4594;50.994;7.126;2022-07-04T05:47:47;22.10;37.10
9118;DHT22;4594;50.994;7.126;2022-07-04T05:50:13;22.50;37.20
9118;DHT22;4594;50.994;7.126;2022-07-04T05:52:39;22.80;37.10
9118;DHT22;4594;50.994;7.126;2022-07-04T05:55:05;23.20;37.10
9118;DHT22;4594;50.994;7.126;2022-07-04T05:57:33;23.60;37.00
9118;DHT22;4594;50.994;7.126;2022-07-04T06:00:00;24.00;37.00
9118;DHT22;4594;50.994;7.126;2022-07-04T06:02:26;24.30;36.80
9118;DHT22;4594;50.994;7.126;2022-07-04T06:04:52;24.70;36.80
9118;DHT22;4594;50.994;7.126;2022-07-04T06:07:18;25.00;36.70
9118;DHT22;4594;50.994;7.126;2022-07-04T06:09:43;25.30;36.70
9118;DHT22;4594;50.994;7.126;2022-07-04T06:12:09;25.70;36.70
9118;DHT22;4594;50.994;7.126;2022-07-04T06:14:35;26.00;36.50
9118;DHT22;4594;50.994;7.126;2022-07-04T06:17:01;26.40;36.40
9118;DHT22;4594;50.994;7.126;2022-07-04T06:19:27;26.80;36.30
9118;DHT22;4594;50.994;7.126;2022-07-04T06:21:53;27.20;36.30
9118;DHT22;4594;50.994;7.126;2022-07-04T06:24:18;27.60;36.50
9118;DHT22;4594;50.994;7.126;2022-07-04T06:26:44;28.00;36.10
9118;DHT22;4594;50.994;7.126;2022-07-04T06:29:10;28.40;35.90
9118;DHT22;4594;50.994;7.126;2022-07-04T06:31:35;28.80;35.80
9118;DHT22;4594;50.994;7.126;2022-07-04T06:34:01;29.20;35.70
9118;DHT22;4594;50.994;7.126;2022-07-04T06:36:46;29.60;35.50
9118;DHT22;4594;50.994;7.126;2022-07-04T06:39:12;30.00;35.10
9118;DHT22;4594;50.994;7.126;2022-07-04T06:41:37;30.30;34.80
9118;DHT22;4594;50.994;7.126;2022-07-04T06:44:04;30.50;34.70
9118;DHT22;4594;50.994;7.126;2022-07-04T06:46:30;30.70;34.60
9118;DHT22;4594;50.994;7.126;2022-07-04T06:48:56;31.00;34.60
9118;DHT22;4594;50.994;7.126;2022-07-04T06:51:23;31.20;34.50
9118;DHT22;4594;50.994;7.126;2022-07-04T06:53:49;31.50;34.50
9118;DHT22;4594;50.994;7.126;2022-07-04T06:56:16;31.80;34.50
9118;DHT22;4594;50.994;7.126;2022-07-04T06:58:41;32.10;34.40
9118;DHT22;4594;50.994;7.126;2022-07-04T07:01:07;32.40;34.60
9118;DHT22;4594;50.994;7.126;2022-07-04T07:03:33;32.70;34.20
9118;DHT22;4594;50.994;7.126;2022-07-04T07:05:59;33.00;34.00
9118;DHT22;4594;50.994;7.126;2022-07-04T07:08:24;33.30;33.80
9118;DHT22;4594;50.994;7.126;2022-07-04T07:10:50;33.60;33.60
9118;DHT22;4594;50.994;7.126;2022-07-04T07:13:16;33.90;33.50
9118;DHT22;4594;50.994;7.126;2022-07-04T07:15:42;34.10;33.30
9118;DHT22;4594;50.994;7.126;2022-07-04T07:18:07;34.40;33.00
9118;DHT22;4594;50.994;7.126;2022-07-04T07:20:33;34.70;32.80
9118;DHT22;4594;50.994;7.126;2022-07-04T07:23:02;34.90;32.60
9118;DHT22;4594;50.994;7.126;2022-07-04T07:25:29;35.10;32.20
9118;DHT22;4594;50.994;7.126;2022-07-04T07:27:56;35.40;32.50
9118;DHT22;4594;50.994;7.126;2022-07-04T07:30:22;35.60;32.40
9118;DHT22;4594;50.994;7.126;2022-07-04T07:32:48;35.80;32.20
9118;DHT22;4594;50.994;7.126;2022-07-04T07:35:13;36.00;32.00
9118;DHT22;4594;50.994;7.126;2022-07-04T07:37:40;36.20;31.90
9118;DHT22;4594;50.994;7.126;2022-07-04T07:40:07;36.40;31.80
9118;DHT22;4594;50.994;7.126;2022-07-04T07:42:33;36.60;31.60
9118;DHT22;4594;50.994;7.126;2022-07-04T07:44:59;36.80;31.40
9118;DHT22;4594;50.994;7.126;2022-07-04T07:47:25;37.00;31.40
9118;DHT22;4594;50.994;7.126;2022-07-04T07:49:50;37.10;31.20
9118;DHT22;4594;50.994;7.126;2022-07-04T07:52:16;37.30;31.10
9118;DHT22;4594;50.994;7.126;2022-07-04T07:54:43;37.40;31.00
9118;DHT22;4594;50.994;7.126;2022-07-04T07:57:09;37.70;30.80
9118;DHT22;4594;50.994;7.126;2022-07-04T07:59:34;37.80;30.70
9118;DHT22;4594;50.994;7.126;2022-07-04T08:02:00;38.00;30.80
9118;DHT22;4594;50.994;7.126;2022-07-04T08:04:26;38.20;30.70
9118;DHT22;4594;50.994;7.126;2022-07-04T08:07:06;38.30;30.50
9118;DHT22;4594;50.994;7.126;2022-07-04T08:09:34;38.50;30.30
9118;DHT22;4594;50.994;7.126;2022-07-04T08:12:02;38.70;30.50
9118;DHT22;4594;50.994;7.126;2022-07-04T08:14:30;38.80;30.20
9118;DHT22;4594;50.994;7.126;2022-07-04T08:16:57;39.00;30.10
9118;DHT22;4594;50.994;7.126;2022-07-04T08:19:24;39.10;30.00
9118;DHT22;4594;50.994;7.126;2022-07-04T08:21:53;39.10;29.80
9118;DHT22;4594;50.994;7.126;2022-07-04T08:24:20;39.10;29.70
9118;DHT22;4594;50.994;7.126;2022-07-04T08:26:46;39.20;29.80
9118;DHT22;4594;50.994;7.126;2022-07-04T08:29:13;39.30;29.80
9118;DHT22;4594;50.994;7.126;2022-07-04T08:31:39;39.50;29.70
9118;DHT22;4594;50.994;7.126;2022-07-04T08:34:05;39.70;29.80
9118;DHT22;4594;50.994;7.126;2022-07-04T08:36:30;39.80;29.60
9118;DHT22;4594;50.994;7.126;2022-07-04T08:38:56;40.00;29.50
9118;DHT22;4594;50.994;7.126;2022-07-04T08:41:22;40.20;29.50
9118;DHT22;4594;50.994;7.126;2022-07-04T08:43:48;40.30;29.40
9118;DHT22;4594;50.994;7.126;2022-07-04T08:46:15;40.50;29.30
9118;DHT22;4594;50.994;7.126;2022-07-04T08:48:52;40.70;29.30
9118;DHT22;4594;50.994;7.126;2022-07-04T08:51:29;40.90;29.00
9118;DHT22;4594;50.994;7.126;2022-07-04T08:54:00;41.10;28.80
9118;DHT22;4594;50.994;7.126;2022-07-04T08:56:27;41.40;29.00
9118;DHT22;4594;50.994;7.126;2022-07-04T08:59:13;41.40;28.90
9118;DHT22;4594;50.994;7.126;2022-07-04T09:01:42;41.60;28.80
9118;DHT22;4594;50.994;7.126;2022-07-04T09:04:10;41.80;28.80
9118;DHT22;4594;50.994;7.126;2022-07-04T09:06:36;41.80;28.70
9118;DHT22;4594;50.994;7.126;2022-07-04T09:09:03;41.90;28.70
9118;DHT22;4594;50.994;7.126;2022-07-04T09:11:31;42.00;28.60
9118;DHT22;4594;50.994;7.126;2022-07-04T09:13:57;42.10;28.50
9118;DHT22;4594;50.994;7.126;2022-07-04T09:16:23;42.10;28.40
9118;DHT22;4594;50.994;7.126;2022-07-04T09:18:50;42.20;28.20
9118;DHT22;4594;50.994;7.126;2022-07-04T09:21:21;42.20;28.10
9118;DHT22;4594;50.994;7.126;2022-07-04T09:24:06;42.20;28.10
9118;DHT22;4594;50.994;7.126;2022-07-04T09:26:32;42.20;28.10
9118;DHT22;4594;50.994;7.126;2022-07-04T09:28:58;42.20;28.10
9118;DHT22;4594;50.994;7.126;2022-07-04T09:31:26;42.30;28.10
9118;DHT22;4594;50.994;7.126;2022-07-04T09:33:56;42.30;28.00
9118;DHT22;4594;50.994;7.126;2022-07-04T09:36:28;42.40;28.00
9118;DHT22;4594;50.994;7.126;2022-07-04T09:39:19;42.50;27.90
9118;DHT22;4594;50.994;7.126;2022-07-04T09:41:56;42.60;27.70
9118;DHT22;4594;50.994;7.126;2022-07-04T09:44:29;42.70;27.70
9118;DHT22;4594;50.994;7.126;2022-07-04T09:47:23;42.70;27.60
9118;DHT22;4594;50.994;7.126;2022-07-04T09:52:32;42.80;27.30
9118;DHT22;4594;50.994;7.126;2022-07-04T09:55:09;42.80;27.30
9118;DHT22;4594;50.994;7.126;2022-07-04T09:57:35;42.80;27.30
9118;DHT22;4594;50.994;7.126;2022-07-04T10:00:21;42.70;27.30
9118;DHT22;4594;50.994;7.126;2022-07-04T10:02:53;42.70;27.20
9118;DHT22;4594;50.994;7.126;2022-07-04T10:05:29;42.70;27.40
9118;DHT22;4594;50.994;7.126;2022-07-04T10:07:56;42.70;27.20
9118;DHT22;4594;50.994;7.126;2022-07-04T10:10:36;42.80;27.30
9118;DHT22;4594;50.994;7.126;2022-07-04T10:13:10;42.90;27.20
9118;DHT22;4594;50.994;7.126;2022-07-04T10:15:39;42.90;27.00
9118;DHT22;4594;50.994;7.126;2022-07-04T10:18:07;42.90;27.00
9118;DHT22;4594;50.994;7.126;2022-07-04T10:20:34;43.00;27.10
9118;DHT22;4594;50.994;7.126;2022-07-04T10:23:00;42.90;27.00
9118;DHT22;4594;50.994;7.126;2022-07-04T10:25:27;43.10;27.00
9118;DHT22;4594;50.994;7.126;2022-07-04T10:27:54;43.10;26.90
9118;DHT22;4594;50.994;7.126;2022-07-04T10:30:29;43.10;27.00
9118;DHT22;4594;50.994;7.126;2022-07-04T10:33:00;43.20;26.90
9118;DHT22;4594;50.994;7.126;2022-07-04T10:35:59;43.20;26.80
9118;DHT22;4594;50.994;7.126;2022-07-04T10:38:34;43.30;26.70
9118;DHT22;4594;50.994;7.126;2022-07-04T10:41:12;43.40;26.70
9118;DHT22;4594;50.994;7.126;2022-07-04T10:43:51;43.40;26.80
9118;DHT22;4594;50.994;7.126;2022-07-04T10:48:56;43.40;26.70
9118;DHT22;4594;50.994;7.126;2022-07-04T10:54:18;43.20;26.40
9118;DHT22;4594;50.994;7.126;2022-07-04T10:56:56;43.10;26.30
9118;DHT22;4594;50.994;7.126;2022-07-04T10:59:31;42.90;26.40
9118;DHT22;4594;50.994;7.126;2022-07-04T11:04:48;42.60;26.20
9118;DHT22;4594;50.994;7.126;2022-07-04T11:07:20;42.50;26.40
9118;DHT22;4594;50.994;7.126;2022-07-04T11:17:58;42.00;26.50
9118;DHT22;4594;50.994;7.126;2022-07-04T11:20:31;41.80;26.30
9118;DHT22;4594;50.994;7.126;2022-07-04T11:23:07;41.50;26.20
9118;DHT22;4594;50.994;7.126;2022-07-04T11:25:34;41.30;26.20
9118;DHT22;4594;50.994;7.126;2022-07-04T11:28:22;41.10;26.20
9118;DHT22;4594;50.994;7.126;2022-07-04T11:30:55;40.90;26.20
9118;DHT22;4594;50.994;7.126;2022-07-04T11:33:28;40.80;26.30
9118;DHT22;4594;50.994;7.126;2022-07-04T11:36:06;40.60;26.20
9118;DHT22;4594;50.994;7.126;2022-07-04T11:38:44;40.50;26.10
9118;DHT22;4594;50.994;7.126;2022-07-04T11:41:20;40.40;26.10
9118;DHT22;4594;50.994;7.126;2022-07-04T11:44:08;40.10;26.00
9118;DHT22;4594;50.994;7.126;2022-07-04T11:50:13;39.40;25.80
9118;DHT22;4594;50.994;7.126;2022-07-04T11:52:48;39.00;25.80
9118;DHT22;4594;50.994;7.126;2022-07-04T11:55:19;38.60;25.80
9118;DHT22;4594;50.994;7.126;2022-07-04T11:57:48;38.10;25.60
9118;DHT22;4594;50.994;7.126;2022-07-04T12:00:18;37.80;25.60
9118;DHT22;4594;50.994;7.126;2022-07-04T12:02:47;37.30;25.60
9118;DHT22;4594;50.994;7.126;2022-07-04T12:05:15;36.90;25.50
9118;DHT22;4594;50.994;7.126;2022-07-04T12:07:44;36.50;25.50
9118;DHT22;4594;50.994;7.126;2022-07-04T12:10:13;36.20;25.60
9118;DHT22;4594;50.994;7.126;2022-07-04T12:12:56;35.80;25.50
9118;DHT22;4594;50.994;7.126;2022-07-04T12:15:24;35.50;25.60
9118;DHT22;4594;50.994;7.126;2022-07-04T12:18:00;35.10;25.40
9118;DHT22;4594;50.994;7.126;2022-07-04T12:20:26;34.80;25.50
9118;DHT22;4594;50.994;7.126;2022-07-04T12:22:57;34.60;25.60
9118;DHT22;4594;50.994;7.126;2022-07-04T12:25:34;34.30;25.70
9118;DHT22;4594;50.994;7.126;2022-07-04T12:28:07;34.00;25.70
9118;DHT22;4594;50.994;7.126;2022-07-04T12:30:39;33.80;25.70
9118;DHT22;4594;50.994;7.126;2022-07-04T12:33:13;33.60;25.80
9118;DHT22;4594;50.994;7.126;2022-07-04T12:35:47;33.40;25.80
9118;DHT22;4594;50.994;7.126;2022-07-04T12:38:20;33.20;26.10
9118;DHT22;4594;50.994;7.126;2022-07-04T12:46:28;32.70;25.90
9118;DHT22;4594;50.994;7.126;2022-07-04T12:48:57;32.50;25.80
9118;DHT22;4594;50.994;7.126;2022-07-04T12:51:27;32.40;25.70
9118;DHT22;4594;50.994;7.126;2022-07-04T12:53:58;32.30;25.80
9118;DHT22;4594;50.994;7.126;2022-07-04T12:56:36;32.20;25.80
9118;DHT22;4594;50.994;7.126;2022-07-04T12:59:06;32.00;25.80
9118;DHT22;4594;50.994;7.126;2022-07-04T13:01:33;31.90;25.80
9118;DHT22;4594;50.994;7.126;2022-07-04T13:04:00;31.80;25.80
9118;DHT22;4594;50.994;7.126;2022-07-04T13:06:26;31.70;25.80
9118;DHT22;4594;50.994;7.126;2022-07-04T13:08:53;31.60;25.80
9118;DHT22;4594;50.994;7.126;2022-07-04T13:11:20;31.50;25.90
9118;DHT22;4594;50.994;7.126;2022-07-04T13:14:04;31.30;25.90
9118;DHT22;4594;50.994;7.126;2022-07-04T13:16:31;31.30;25.90
9118;DHT22;4594;50.994;7.126;2022-07-04T13:18:57;31.20;25.80
9118;DHT22;4594;50.994;7.126;2022-07-04T13:21:23;31.10;25.80
9118;DHT22;4594;50.994;7.126;2022-07-04T13:23:49;31.00;25.90
9118;DHT22;4594;50.994;7.126;2022-07-04T13:26:15;30.90;25.90
9118;DHT22;4594;50.994;7.126;2022-07-04T13:28:41;30.80;26.00
9118;DHT22;4594;50.994;7.126;2022-07-04T13:31:07;30.70;26.10
9118;DHT22;4594;50.994;7.126;2022-07-04T13:33:33;30.70;26.10
9118;DHT22;4594;50.994;7.126;2022-07-04T13:35:59;30.60;26.10
9118;DHT22;4594;50.994;7.126;2022-07-04T13:38:24;30.60;26.20
9118;DHT22;4594;50.994;7.126;2022-07-04T13:40:51;30.60;26.20
9118;DHT22;4594;50.994;7.126;2022-07-04T13:43:17;30.50;26.10
9118;DHT22;4594;50.994;7.126;2022-07-04T13:45:43;30.50;26.20
9118;DHT22;4594;50.994;7.126;2022-07-04T13:48:12;30.40;26.20
9118;DHT22;4594;50.994;7.126;2022-07-04T13:50:38;30.30;26.10
9118;DHT22;4594;50.994;7.126;2022-07-04T13:53:04;30.20;26.20
9118;DHT22;4594;50.994;7.126;2022-07-04T13:55:31;30.20;26.20
9118;DHT22;4594;50.994;7.126;2022-07-04T13:58:02;30.10;26.20
9118;DHT22;4594;50.994;7.126;2022-07-04T14:00:29;30.00;26.30
9118;DHT22;4594;50.994;7.126;2022-07-04T14:02:54;30.00;26.30
9118;DHT22;4594;50.994;7.126;2022-07-04T14:05:20;29.90;26.30
9118;DHT22;4594;50.994;7.126;2022-07-04T14:07:46;29.90;26.40
9118;DHT22;4594;50.994;7.126;2022-07-04T14:10:12;29.90;26.50
9118;DHT22;4594;50.994;7.126;2022-07-04T14:12:39;29.80;26.60
9118;DHT22;4594;50.994;7.126;2022-07-04T14:15:05;29.70;26.50
9118;DHT22;4594;50.994;7.126;2022-07-04T14:17:32;29.70;26.50
9118;DHT22;4594;50.994;7.126;2022-07-04T14:19:57;29.70;26.60
9118;DHT22;4594;50.994;7.126;2022-07-04T14:22:23;29.60;26.60
9118;DHT22;4594;50.994;7.126;2022-07-04T14:24:49;29.50;26.60
9118;DHT22;4594;50.994;7.126;2022-07-04T14:27:15;29.50;26.60
9118;DHT22;4594;50.994;7.126;2022-07-04T14:29:40;29.50;26.70
9118;DHT22;4594;50.994;7.126;2022-07-04T14:32:07;29.40;26.70
9118;DHT22;4594;50.994;7.126;2022-07-04T14:34:33;29.40;26.60
9118;DHT22;4594;50.994;7.126;2022-07-04T14:36:59;29.30;26.60
9118;DHT22;4594;50.994;7.126;2022-07-04T14:39:26;29.30;26.70
9118;DHT22;4594;50.994;7.126;2022-07-04T14:41:52;29.20;26.60
9118;DHT22;4594;50.994;7.126;2022-07-04T14:44:19;29.20;26.70
9118;DHT22;4594;50.994;7.126;2022-07-04T14:46:45;29.10;26.80
9118;DHT22;4594;50.994;7.126;2022-07-04T14:49:11;29.10;26.80
9118;DHT22;4594;50.994;7.126;2022-07-04T14:51:37;29.00;26.70
9118;DHT22;4594;50.994;7.126;2022-07-04T14:54:07;29.00;26.70
9118;DHT22;4594;50.994;7.126;2022-07-04T14:56:34;28.90;26.70
9118;DHT22;4594;50.994;7.126;2022-07-04T14:59:00;28.90;26.80
9118;DHT22;4594;50.994;7.126;2022-07-04T15:01:27;28.90;26.80
9118;DHT22;4594;50.994;7.126;2022-07-04T15:03:53;28.90;26.70
9118;DHT22;4594;50.994;7.126;2022-07-04T15:06:19;28.90;26.70
9118;DHT22;4594;50.994;7.126;2022-07-04T15:08:46;28.80;26.80
9118;DHT22;4594;50.994;7.126;2022-07-04T15:11:11;28.70;27.00
9118;DHT22;4594;50.994;7.126;2022-07-04T15:13:37;28.70;26.80
9118;DHT22;4594;50.994;7.126;2022-07-04T15:16:03;28.60;26.80
9118;DHT22;4594;50.994;7.126;2022-07-04T15:18:30;28.50;26.80
9118;DHT22;4594;50.994;7.126;2022-07-04T15:20:55;28.50;26.80
9118;DHT22;4594;50.994;7.126;2022-07-04T15:23:40;28.50;26.80
9118;DHT22;4594;50.994;7.126;2022-07-04T15:26:24;28.40;26.70
9118;DHT22;4594;50.994;7.126;2022-07-04T15:28:50;28.40;26.70
9118;DHT22;4594;50.994;7.126;2022-07-04T15:31:16;28.30;26.80
9118;DHT22;4594;50.994;7.126;2022-07-04T15:33:41;28.30;26.80
9118;DHT22;4594;50.994;7.126;2022-07-04T15:36:07;28.20;26.90
9118;DHT22;4594;50.994;7.126;2022-07-04T15:38:33;28.20;26.90
9118;DHT22;4594;50.994;7.126;2022-07-04T15:40:59;28.20;26.90
9118;DHT22;4594;50.994;7.126;2022-07-04T15:43:26;28.20;27.00
9118;DHT22;4594;50.994;7.126;2022-07-04T15:45:52;28.20;27.00
9118;DHT22;4594;50.994;7.126;2022-07-04T15:48:18;28.20;27.10
9118;DHT22;4594;50.994;7.126;2022-07-04T15:50:44;28.20;27.10
9118;DHT22;4594;50.994;7.126;2022-07-04T15:53:10;28.20;27.10
9118;DHT22;4594;50.994;7.126;2022-07-04T15:55:36;28.20;27.00
9118;DHT22;4594;50.994;7.126;2022-07-04T15:58:02;28.20;27.10
9118;DHT22;4594;50.994;7.126;2022-07-04T16:00:28;28.20;27.10
9118;DHT22;4594;50.994;7.126;2022-07-04T16:02:54;28.20;27.10
9118;DHT22;4594;50.994;7.126;2022-07-04T16:05:20;28.10;27.00
9118;DHT22;4594;50.994;7.126;2022-07-04T16:07:45;28.10;27.00
9118;DHT22;4594;50.994;7.126;2022-07-04T16:10:11;28.10;27.00
9118;DHT22;4594;50.994;7.126;2022-07-04T16:12:37;28.10;27.10
9118;DHT22;4594;50.994;7.126;2022-07-04T16:15:03;28.00;27.10
9118;DHT22;4594;50.994;7.126;2022-07-04T16:17:29;28.00;27.10
9118;DHT22;4594;50.994;7.126;2022-07-04T16:19:55;27.90;27.10
9118;DHT22;4594;50.994;7.126;2022-07-04T16:22:21;27.90;27.20
9118;DHT22;4594;50.994;7.126;2022-07-04T16:24:46;27.90;27.20
9118;DHT22;4594;50.994;7.126;2022-07-04T16:27:12;27.90;27.20
9118;DHT22;4594;50.994;7.126;2022-07-04T16:29:38;27.90;27.20
9118;DHT22;4594;50.994;7.126;2022-07-04T16:32:04;27.90;27.20
9118;DHT22;4594;50.994;7.126;2022-07-04T16:34:30;27.90;27.30